N115SB KCHA-KLZU
Flight info
| Callsign | N115SB |
|---|---|
| Flight time | N/A |
| Altitude | 7500 |
| Route | DCT |
| Aircraft | P28B/L-SFG/S |
Departure
| Time | 2026-05-09 00:22 |
|---|---|
| Airport | Chattanooga Metropolitan Airport (Lovell Field) (KCHA) |
Arrival
| Time | N/A |
|---|---|
| Airport | Gwinnett County Briscoe Field (KLZU) |
| Time | Latitude | Longitude | Altitude | Speed | Heading |
|---|---|---|---|---|---|
| 2026-05-08 23:59 | 35.04092 | -85.19760 | 676 ft | 0 kts | 67° |
| 2026-05-09 00:15 | 35.04096 | -85.19758 | 686 ft | 4 kts | 356° |
| 2026-05-09 00:16 | 35.04096 | -85.19775 | 676 ft | 2 kts | 243° |
| 2026-05-09 00:16 | 35.04064 | -85.19772 | 676 ft | 8 kts | 189° |
| 2026-05-09 00:16 | 35.03999 | -85.19787 | 676 ft | 9 kts | 197° |
| 2026-05-09 00:16 | 35.04007 | -85.19845 | 676 ft | 12 kts | 332° |
| 2026-05-09 00:17 | 35.04091 | -85.19902 | 677 ft | 15 kts | 329° |
| 2026-05-09 00:17 | 35.04112 | -85.19917 | 677 ft | 0 kts | 329° |
| 2026-05-09 00:20 | 35.04119 | -85.19922 | 677 ft | 5 kts | 330° |
| 2026-05-09 00:20 | 35.04150 | -85.19944 | 677 ft | 11 kts | 328° |
| 2026-05-09 00:21 | 35.04191 | -85.19998 | 679 ft | 6 kts | 284° |
| 2026-05-09 00:21 | 35.04155 | -85.20064 | 680 ft | 15 kts | 198° |
| 2026-05-09 00:21 | 35.03877 | -85.20165 | 718 ft | 67 kts | 197° |
| 2026-05-09 00:21 | 35.03371 | -85.20355 | 967 ft | 84 kts | 196° |
| 2026-05-09 00:22 | 35.02825 | -85.20561 | 1361 ft | 79 kts | 198° |
| 2026-05-09 00:22 | 35.02261 | -85.20721 | 1681 ft | 88 kts | 172° |
| 2026-05-09 00:22 | 35.01863 | -85.20211 | 2122 ft | 86 kts | 121° |
| 2026-05-09 00:22 | 35.01645 | -85.19531 | 2506 ft | 90 kts | 116° |
| 2026-05-09 00:23 | 35.01426 | -85.18798 | 2879 ft | 89 kts | 114° |
| 2026-05-09 00:23 | 35.01208 | -85.18098 | 3199 ft | 92 kts | 118° |
| 2026-05-09 00:23 | 35.00898 | -85.17389 | 3392 ft | 94 kts | 141° |
| 2026-05-09 00:23 | 35.00490 | -85.16793 | 3681 ft | 90 kts | 132° |
| 2026-05-09 00:24 | 35.00111 | -85.16170 | 3891 ft | 94 kts | 134° |
| 2026-05-09 00:24 | 34.99705 | -85.15555 | 4137 ft | 92 kts | 135° |
| 2026-05-09 00:24 | 34.99279 | -85.14954 | 4329 ft | 95 kts | 137° |
| 2026-05-09 00:24 | 34.98844 | -85.14367 | 4580 ft | 92 kts | 138° |
| 2026-05-09 00:25 | 34.98395 | -85.13787 | 4805 ft | 94 kts | 140° |
| 2026-05-09 00:25 | 34.97941 | -85.13228 | 5035 ft | 95 kts | 140° |
| 2026-05-09 00:25 | 34.97467 | -85.12668 | 5251 ft | 95 kts | 141° |
| 2026-05-09 00:25 | 34.96987 | -85.12114 | 5440 ft | 98 kts | 143° |
| 2026-05-09 00:26 | 34.96484 | -85.11566 | 5680 ft | 94 kts | 145° |
| 2026-05-09 00:26 | 34.95987 | -85.11011 | 5841 ft | 101 kts | 141° |
| 2026-05-09 00:26 | 34.95498 | -85.10420 | 6104 ft | 97 kts | 139° |
| 2026-05-09 00:26 | 34.95022 | -85.09800 | 6278 ft | 103 kts | 138° |
| 2026-05-09 00:27 | 34.94541 | -85.09167 | 6517 ft | 100 kts | 139° |
| 2026-05-09 00:27 | 34.94071 | -85.08559 | 6683 ft | 103 kts | 140° |
| 2026-05-09 00:27 | 34.93578 | -85.07917 | 6884 ft | 102 kts | 140° |
| 2026-05-09 00:27 | 34.93086 | -85.07299 | 7084 ft | 104 kts | 142° |
| 2026-05-09 00:28 | 34.92547 | -85.06694 | 7285 ft | 104 kts | 146° |
| 2026-05-09 00:28 | 34.92011 | -85.06115 | 7443 ft | 107 kts | 145° |
| 2026-05-09 00:28 | 34.91435 | -85.05475 | 7480 ft | 115 kts | 144° |
| 2026-05-09 00:28 | 34.90852 | -85.04823 | 7535 ft | 119 kts | 144° |
| 2026-05-09 00:29 | 34.90208 | -85.04165 | 7584 ft | 124 kts | 143° |
| 2026-05-09 00:29 | 34.89502 | -85.03518 | 7578 ft | 129 kts | 145° |
| 2026-05-09 00:29 | 34.88763 | -85.02863 | 7553 ft | 134 kts | 145° |
| 2026-05-09 00:29 | 34.88001 | -85.02198 | 7544 ft | 135 kts | 145° |
| 2026-05-09 00:30 | 34.87247 | -85.01497 | 7498 ft | 138 kts | 141° |
| 2026-05-09 00:30 | 34.86526 | -85.00748 | 7512 ft | 136 kts | 140° |
| 2026-05-09 00:30 | 34.85819 | -84.99992 | 7539 ft | 133 kts | 138° |
| 2026-05-09 00:30 | 34.85157 | -84.99211 | 7552 ft | 134 kts | 135° |
| 2026-05-09 00:31 | 34.84521 | -84.98373 | 7537 ft | 135 kts | 132° |
| 2026-05-09 00:31 | 34.83901 | -84.97525 | 7558 ft | 134 kts | 132° |
| 2026-05-09 00:31 | 34.83278 | -84.96677 | 7546 ft | 136 kts | 133° |
| 2026-05-09 00:31 | 34.82643 | -84.95823 | 7548 ft | 135 kts | 132° |
| 2026-05-09 00:32 | 34.82017 | -84.94990 | 7541 ft | 136 kts | 133° |
| 2026-05-09 00:32 | 34.81366 | -84.94148 | 7518 ft | 136 kts | 134° |
| 2026-05-09 00:32 | 34.80710 | -84.93314 | 7519 ft | 136 kts | 134° |
| 2026-05-09 00:32 | 34.80058 | -84.92480 | 7511 ft | 136 kts | 133° |
| 2026-05-09 00:33 | 34.79422 | -84.91624 | 7502 ft | 136 kts | 133° |
| 2026-05-09 00:33 | 34.78783 | -84.90773 | 7496 ft | 136 kts | 133° |
| 2026-05-09 00:33 | 34.78130 | -84.89942 | 7495 ft | 136 kts | 135° |
| 2026-05-09 00:33 | 34.77466 | -84.89121 | 7494 ft | 136 kts | 135° |
| 2026-05-09 00:34 | 34.76788 | -84.88320 | 7493 ft | 136 kts | 136° |
| 2026-05-09 00:34 | 34.76109 | -84.87517 | 7493 ft | 136 kts | 135° |
| 2026-05-09 00:34 | 34.75437 | -84.86711 | 7489 ft | 136 kts | 136° |
| 2026-05-09 00:34 | 34.74748 | -84.85919 | 7483 ft | 136 kts | 137° |
| 2026-05-09 00:35 | 34.74056 | -84.85135 | 7485 ft | 136 kts | 137° |
| 2026-05-09 00:35 | 34.73377 | -84.84337 | 7479 ft | 136 kts | 136° |
| 2026-05-09 00:35 | 34.72701 | -84.83532 | 7478 ft | 136 kts | 136° |
| 2026-05-09 00:35 | 34.72044 | -84.82707 | 7474 ft | 136 kts | 134° |
| 2026-05-09 00:36 | 34.71379 | -84.81886 | 7458 ft | 136 kts | 137° |
| 2026-05-09 00:36 | 34.70671 | -84.81125 | 7443 ft | 136 kts | 139° |
| 2026-05-09 00:36 | 34.69945 | -84.80387 | 7431 ft | 136 kts | 141° |
| 2026-05-09 00:36 | 34.69212 | -84.79667 | 7442 ft | 134 kts | 141° |
| 2026-05-09 00:37 | 34.68497 | -84.78933 | 7448 ft | 133 kts | 137° |
| 2026-05-09 00:37 | 34.67829 | -84.78160 | 7476 ft | 132 kts | 137° |
| 2026-05-09 00:37 | 34.67161 | -84.77383 | 7472 ft | 133 kts | 137° |
| 2026-05-09 00:37 | 34.66491 | -84.76601 | 7477 ft | 133 kts | 136° |
| 2026-05-09 00:38 | 34.65829 | -84.75812 | 7491 ft | 133 kts | 135° |
| 2026-05-09 00:38 | 34.65172 | -84.75017 | 7499 ft | 133 kts | 135° |
| 2026-05-09 00:38 | 34.64533 | -84.74200 | 7512 ft | 133 kts | 133° |
| 2026-05-09 00:38 | 34.63921 | -84.73353 | 7523 ft | 134 kts | 131° |
| 2026-05-09 00:39 | 34.63323 | -84.72490 | 7515 ft | 133 kts | 130° |
| 2026-05-09 00:39 | 34.62718 | -84.71650 | 7535 ft | 134 kts | 132° |
| 2026-05-09 00:39 | 34.62078 | -84.70833 | 7547 ft | 133 kts | 135° |
| 2026-05-09 00:39 | 34.61417 | -84.70044 | 7554 ft | 134 kts | 136° |
| 2026-05-09 00:40 | 34.60734 | -84.69280 | 7564 ft | 133 kts | 138° |
| 2026-05-09 00:40 | 34.60049 | -84.68523 | 7575 ft | 133 kts | 138° |
| 2026-05-09 00:40 | 34.59364 | -84.67761 | 7583 ft | 133 kts | 138° |
| 2026-05-09 00:41 | 34.57980 | -84.66257 | 7588 ft | 134 kts | 139° |
| 2026-05-09 00:41 | 34.57279 | -84.65508 | 7574 ft | 136 kts | 139° |
| 2026-05-09 00:41 | 34.56566 | -84.64741 | 7547 ft | 137 kts | 139° |
| 2026-05-09 00:41 | 34.55861 | -84.63953 | 7524 ft | 138 kts | 137° |
| 2026-05-09 00:42 | 34.55168 | -84.63153 | 7515 ft | 137 kts | 137° |
| 2026-05-09 00:42 | 34.54480 | -84.62348 | 7496 ft | 137 kts | 136° |
| 2026-05-09 00:42 | 34.53786 | -84.61546 | 7475 ft | 137 kts | 137° |
| 2026-05-09 00:42 | 34.53093 | -84.60750 | 7466 ft | 137 kts | 136° |
| 2026-05-09 00:43 | 34.52414 | -84.59956 | 7444 ft | 138 kts | 136° |
| 2026-05-09 00:43 | 34.51726 | -84.59135 | 7447 ft | 135 kts | 135° |
| 2026-05-09 00:43 | 34.51065 | -84.58327 | 7456 ft | 135 kts | 135° |
| 2026-05-09 00:43 | 34.50411 | -84.57520 | 7492 ft | 133 kts | 135° |
| 2026-05-09 00:44 | 34.49763 | -84.56746 | 7504 ft | 134 kts | 135° |
| 2026-05-09 00:44 | 34.49097 | -84.55954 | 7517 ft | 133 kts | 136° |
| 2026-05-09 00:44 | 34.48426 | -84.55179 | 7530 ft | 134 kts | 136° |
| 2026-05-09 00:44 | 34.47751 | -84.54406 | 7544 ft | 134 kts | 137° |
| 2026-05-09 00:45 | 34.47076 | -84.53631 | 7560 ft | 133 kts | 136° |
| 2026-05-09 00:45 | 34.46410 | -84.52842 | 7570 ft | 134 kts | 135° |
| 2026-05-09 00:45 | 34.45741 | -84.52037 | 7546 ft | 136 kts | 135° |
| 2026-05-09 00:45 | 34.45072 | -84.51225 | 7524 ft | 138 kts | 135° |
| 2026-05-09 00:46 | 34.44392 | -84.50424 | 7531 ft | 136 kts | 136° |
| 2026-05-09 00:46 | 34.43715 | -84.49631 | 7522 ft | 136 kts | 136° |
| 2026-05-09 00:46 | 34.43024 | -84.48853 | 7521 ft | 136 kts | 138° |
| 2026-05-09 00:46 | 34.42328 | -84.48080 | 7521 ft | 135 kts | 136° |